createdAt,value
2022-12-26T00:00:38.854Z,77.00
2022-12-26T00:03:26.302Z,76.90
2022-12-26T00:05:54.059Z,76.70
2022-12-26T00:08:21.578Z,76.60
2022-12-26T00:10:49.116Z,76.60
2022-12-26T00:13:40.392Z,76.60
2022-12-26T00:16:12.125Z,76.70
2022-12-26T00:18:40.012Z,76.80
2022-12-26T00:21:09.077Z,76.90
2022-12-26T00:23:37.365Z,77.10
2022-12-26T00:26:07.100Z,77.40
2022-12-26T00:28:34.927Z,77.50
2022-12-26T00:34:37.726Z,77.70
2022-12-26T00:37:05.314Z,77.60
2022-12-26T00:39:32.736Z,77.70
2022-12-26T00:42:00.307Z,77.90
2022-12-26T00:44:27.757Z,77.90
2022-12-26T00:46:55.621Z,77.90
2022-12-26T00:49:23.070Z,77.90
2022-12-26T00:51:50.730Z,77.90
2022-12-26T00:54:18.035Z,77.90
2022-12-26T00:56:45.613Z,77.80
2022-12-26T00:59:13.312Z,77.80
2022-12-26T01:01:41.494Z,77.70
2022-12-26T01:04:09.103Z,77.60
2022-12-26T01:06:36.788Z,77.60
2022-12-26T01:09:04.519Z,77.70
2022-12-26T01:11:41.009Z,77.70
2022-12-26T01:14:11.775Z,77.80
2022-12-26T01:16:40.896Z,77.80
2022-12-26T01:19:09.248Z,77.90
2022-12-26T01:21:37.234Z,78.00
2022-12-26T01:24:05.150Z,77.90
2022-12-26T01:26:32.659Z,78.00
2022-12-26T01:29:00.233Z,78.00
2022-12-26T01:31:28.030Z,77.90
2022-12-26T01:33:55.514Z,78.00
2022-12-26T01:36:23.029Z,77.90
2022-12-26T01:38:50.562Z,77.70
2022-12-26T01:41:20.546Z,77.80
2022-12-26T01:44:00.491Z,77.90
2022-12-26T01:46:42.882Z,78.00
2022-12-26T01:49:36.114Z,78.10
2022-12-26T01:52:12.212Z,78.00
2022-12-26T01:54:43.041Z,78.00
2022-12-26T01:57:17.513Z,78.00
2022-12-26T01:59:47.767Z,78.10
2022-12-26T02:02:17.021Z,78.20
2022-12-26T02:05:02.401Z,78.10
2022-12-26T02:07:31.871Z,78.10
2022-12-26T02:09:59.256Z,78.00
2022-12-26T02:12:37.290Z,78.00
2022-12-26T02:15:13.244Z,78.00
2022-12-26T02:17:41.831Z,77.90
2022-12-26T02:20:23.118Z,77.80
2022-12-26T02:23:20.616Z,77.70
2022-12-26T02:26:04.810Z,77.60
2022-12-26T02:28:49.265Z,77.60
2022-12-26T02:31:22.555Z,77.60
2022-12-26T02:34:03.673Z,77.60
2022-12-26T02:36:44.863Z,77.60
2022-12-26T02:39:43.906Z,77.70
2022-12-26T02:42:32.357Z,77.70
2022-12-26T02:45:30.748Z,77.60
2022-12-26T02:48:06.802Z,77.60
2022-12-26T02:50:47.139Z,77.60
2022-12-26T02:53:45.055Z,77.50
2022-12-26T02:56:43.501Z,77.50
2022-12-26T02:59:53.824Z,77.50
2022-12-26T03:02:51.475Z,77.50
2022-12-26T03:05:47.869Z,77.50
2022-12-26T03:08:45.812Z,77.60
2022-12-26T03:11:27.631Z,77.50
2022-12-26T03:14:02.239Z,77.60
2022-12-26T03:16:45.324Z,77.50
2022-12-26T03:19:14.435Z,77.50
2022-12-26T03:21:45.666Z,77.40
2022-12-26T03:24:16.015Z,77.40
2022-12-26T03:26:50.136Z,77.40
2022-12-26T03:29:34.472Z,77.40
2022-12-26T03:32:04.620Z,77.30
2022-12-26T03:34:33.966Z,77.20
2022-12-26T03:37:18.198Z,77.20
2022-12-26T03:40:17.429Z,77.10
2022-12-26T03:43:10.373Z,77.20
2022-12-26T03:46:18.778Z,77.20
2022-12-26T03:49:17.290Z,77.20
2022-12-26T03:52:19.330Z,77.20
2022-12-26T03:55:17.036Z,77.20
2022-12-26T03:58:13.608Z,77.20
2022-12-26T04:00:56.984Z,77.20
2022-12-26T04:03:39.689Z,77.10
2022-12-26T04:06:28.224Z,77.20
2022-12-26T04:09:39.016Z,76.70
2022-12-26T04:12:28.707Z,76.80
2022-12-26T04:15:20.770Z,76.60
2022-12-26T04:18:16.174Z,76.70
2022-12-26T04:21:01.985Z,76.40
2022-12-26T04:23:50.442Z,76.40
2022-12-26T04:26:37.498Z,76.50
2022-12-26T04:29:19.046Z,76.40
2022-12-26T04:32:09.201Z,76.30
2022-12-26T04:34:53.379Z,76.20
2022-12-26T04:37:38.396Z,76.20
2022-12-26T04:40:25.046Z,75.80
2022-12-26T04:43:47.608Z,75.90
2022-12-26T04:45:55.542Z,75.80
2022-12-26T04:48:37.121Z,75.80
2022-12-26T04:51:04.789Z,76.00
2022-12-26T04:53:32.697Z,76.00
2022-12-26T04:55:59.990Z,76.00
2022-12-26T04:58:27.592Z,75.90
2022-12-26T05:01:15.062Z,76.00
2022-12-26T05:03:57.114Z,76.00
2022-12-26T05:06:38.351Z,75.90
2022-12-26T05:09:24.784Z,75.80
2022-12-26T05:11:52.092Z,75.80
2022-12-26T05:14:19.657Z,75.70
2022-12-26T05:17:00.907Z,75.60
2022-12-26T05:19:41.378Z,75.70
2022-12-26T05:22:25.575Z,75.50
2022-12-26T05:25:07.128Z,75.30
2022-12-26T05:27:52.250Z,75.20
2022-12-26T05:30:19.949Z,75.10
2022-12-26T05:33:00.245Z,75.20
2022-12-26T05:35:27.771Z,75.30
2022-12-26T05:37:55.582Z,75.20
2022-12-26T05:40:23.101Z,75.30
2022-12-26T05:42:50.511Z,75.30
2022-12-26T05:45:18.891Z,75.30
2022-12-26T05:47:51.592Z,75.30
2022-12-26T05:50:19.672Z,75.30
2022-12-26T05:52:47.044Z,75.30
2022-12-26T05:55:14.609Z,75.40
2022-12-26T05:57:42.073Z,75.40
2022-12-26T06:00:10.227Z,75.40
2022-12-26T06:02:37.645Z,75.50
2022-12-26T06:05:05.810Z,75.50
2022-12-26T06:07:33.192Z,75.50
2022-12-26T06:10:00.855Z,75.50
2022-12-26T06:12:28.111Z,75.50
2022-12-26T06:14:55.615Z,75.50
2022-12-26T06:17:22.951Z,75.50
2022-12-26T06:19:50.536Z,75.50
2022-12-26T06:22:18.100Z,75.50
2022-12-26T06:24:45.677Z,75.50
2022-12-26T06:27:13.031Z,75.50
2022-12-26T06:29:40.626Z,75.50
2022-12-26T06:32:07.945Z,75.50
2022-12-26T06:34:35.587Z,75.50
2022-12-26T06:37:03.039Z,75.40
2022-12-26T06:39:30.536Z,75.50
2022-12-26T06:41:58.037Z,75.40
2022-12-26T06:44:26.371Z,75.40
2022-12-26T06:46:53.907Z,75.50
2022-12-26T06:49:21.337Z,75.40
2022-12-26T06:51:48.884Z,75.30
2022-12-26T06:54:16.188Z,75.40
2022-12-26T06:56:44.077Z,75.30
2022-12-26T06:59:12.007Z,75.30
2022-12-26T07:01:39.712Z,75.20
2022-12-26T07:04:07.192Z,75.10
2022-12-26T07:06:36.914Z,75.10
2022-12-26T07:09:14.347Z,75.10
2022-12-26T07:11:48.479Z,75.20
2022-12-26T07:14:16.838Z,75.30
2022-12-26T07:16:45.887Z,75.30
2022-12-26T07:19:15.381Z,75.40
2022-12-26T07:21:43.429Z,75.40
2022-12-26T07:24:17.068Z,75.40
2022-12-26T07:26:45.991Z,75.50
2022-12-26T07:29:14.010Z,75.50
2022-12-26T07:31:42.225Z,75.50
2022-12-26T07:34:12.054Z,75.50
2022-12-26T07:36:40.712Z,75.50
2022-12-26T07:39:08.197Z,75.50
2022-12-26T07:41:49.966Z,75.50
2022-12-26T07:44:17.760Z,75.50
2022-12-26T07:46:47.557Z,75.50
2022-12-26T07:49:15.202Z,75.50
2022-12-26T07:51:43.349Z,75.60
2022-12-26T07:54:11.953Z,75.60
2022-12-26T07:56:41.097Z,75.60
2022-12-26T07:59:15.853Z,75.50
2022-12-26T08:01:44.162Z,75.50
2022-12-26T08:04:13.028Z,75.50
2022-12-26T08:06:40.934Z,75.60
2022-12-26T08:09:12.101Z,75.60
2022-12-26T08:11:39.676Z,75.60
2022-12-26T08:14:07.215Z,75.50
2022-12-26T08:16:34.802Z,75.50
2022-12-26T08:19:04.221Z,75.50
2022-12-26T08:21:33.274Z,75.50
2022-12-26T08:24:00.797Z,75.50
2022-12-26T08:26:28.622Z,75.40
2022-12-26T08:28:57.306Z,75.40
2022-12-26T08:33:57.164Z,75.40
2022-12-26T08:36:25.200Z,75.40
2022-12-26T08:38:52.951Z,75.40
2022-12-26T08:41:20.857Z,75.50
2022-12-26T08:46:38.799Z,75.50
2022-12-26T08:49:06.243Z,75.40
2022-12-26T08:51:33.873Z,75.20
2022-12-26T08:54:01.434Z,75.10
2022-12-26T08:56:29.098Z,75.10
2022-12-26T08:58:56.900Z,75.20
2022-12-26T09:01:29.772Z,75.10
2022-12-26T09:03:59.539Z,75.10
2022-12-26T09:06:34.693Z,75.00
2022-12-26T09:09:02.481Z,75.00
2022-12-26T09:11:30.738Z,74.90
2022-12-26T09:14:02.351Z,74.80
2022-12-26T09:16:49.159Z,74.70
2022-12-26T09:19:18.457Z,74.60
2022-12-26T09:21:47.761Z,74.30
2022-12-26T09:24:18.224Z,74.10
2022-12-26T09:26:45.920Z,74.20
2022-12-26T09:29:14.121Z,74.10
2022-12-26T09:31:42.278Z,74.00
2022-12-26T09:34:09.755Z,73.90
2022-12-26T09:36:38.738Z,73.80
2022-12-26T09:39:08.100Z,73.50
2022-12-26T09:41:53.067Z,73.60
2022-12-26T09:44:51.185Z,73.80
2022-12-26T09:47:34.521Z,73.90
2022-12-26T09:50:14.203Z,73.90
2022-12-26T09:52:47.970Z,73.80
2022-12-26T09:55:37.686Z,73.90
2022-12-26T09:58:22.943Z,73.90
2022-12-26T10:01:10.976Z,73.70
2022-12-26T10:03:43.692Z,74.40
2022-12-26T10:06:20.397Z,74.50
2022-12-26T10:09:11.223Z,73.70
2022-12-26T10:12:12.837Z,73.40
2022-12-26T10:14:59.832Z,72.50
2022-12-26T10:17:39.496Z,71.00
2022-12-26T10:20:28.448Z,69.20
2022-12-26T10:23:18.966Z,69.10
2022-12-26T10:25:53.459Z,69.50
2022-12-26T10:28:24.126Z,69.00
2022-12-26T10:30:54.451Z,67.40
2022-12-26T10:33:43.601Z,65.90
2022-12-26T10:36:24.480Z,65.60
2022-12-26T10:38:55.455Z,65.90
2022-12-26T10:41:31.336Z,65.80
2022-12-26T10:43:58.783Z,67.00
2022-12-26T10:46:33.631Z,67.60
2022-12-26T10:49:01.395Z,67.20
2022-12-26T10:51:29.053Z,64.90
2022-12-26T10:53:56.540Z,64.90
2022-12-26T10:56:26.731Z,64.70
2022-12-26T10:59:04.769Z,65.00
2022-12-26T11:01:40.022Z,65.40
2022-12-26T11:04:31.134Z,65.30
2022-12-26T11:07:11.605Z,65.60
2022-12-26T11:09:45.748Z,65.80
2022-12-26T11:12:23.515Z,66.50
2022-12-26T11:14:57.346Z,67.00
2022-12-26T11:17:31.407Z,67.00
2022-12-26T11:20:16.373Z,67.10
2022-12-26T11:22:45.168Z,67.20
2022-12-26T11:25:17.775Z,67.50
2022-12-26T11:27:58.221Z,67.90
2022-12-26T11:30:38.141Z,67.40
2022-12-26T11:33:25.135Z,67.40
2022-12-26T11:36:08.512Z,67.10
2022-12-26T11:38:49.316Z,67.00
2022-12-26T11:41:39.659Z,67.20
2022-12-26T11:44:17.313Z,67.50
2022-12-26T11:46:50.037Z,67.50
2022-12-26T11:49:26.020Z,67.60
2022-12-26T11:51:59.069Z,67.50
2022-12-26T11:54:33.993Z,67.70
2022-12-26T11:57:22.904Z,67.90
2022-12-26T11:59:53.005Z,68.00
2022-12-26T12:02:36.022Z,68.10
2022-12-26T12:05:14.320Z,68.30
2022-12-26T12:07:46.621Z,68.00
2022-12-26T12:10:31.302Z,68.10
2022-12-26T12:13:15.357Z,68.00
2022-12-26T12:15:49.212Z,67.60
2022-12-26T12:18:16.743Z,67.50
2022-12-26T12:21:13.974Z,67.70
2022-12-26T12:23:54.155Z,68.00
2022-12-26T12:26:40.018Z,68.30
2022-12-26T12:29:23.709Z,68.60
2022-12-26T12:32:09.691Z,68.60
2022-12-26T12:34:51.921Z,68.60
2022-12-26T12:37:25.853Z,68.70
2022-12-26T12:40:07.291Z,68.80
2022-12-26T12:42:56.301Z,69.00
2022-12-26T12:45:40.112Z,68.90
2022-12-26T12:48:27.085Z,69.00
2022-12-26T12:51:24.605Z,69.10
2022-12-26T12:54:35.741Z,69.10
2022-12-26T12:57:46.522Z,69.30
2022-12-26T13:00:21.792Z,69.50
2022-12-26T13:02:57.191Z,69.80
2022-12-26T13:05:42.084Z,70.10
2022-12-26T13:08:37.043Z,70.30
2022-12-26T13:11:22.553Z,70.40
2022-12-26T13:13:56.482Z,70.40
2022-12-26T13:16:31.844Z,70.60
2022-12-26T13:19:04.295Z,70.70
2022-12-26T13:21:36.481Z,70.80
2022-12-26T13:24:24.718Z,70.90
2022-12-26T13:27:18.721Z,71.00
2022-12-26T13:29:49.025Z,71.20
2022-12-26T13:32:28.264Z,71.30
2022-12-26T13:35:01.904Z,71.50
2022-12-26T13:37:38.436Z,71.50
2022-12-26T13:40:22.685Z,71.70
2022-12-26T13:43:10.412Z,71.70
2022-12-26T13:45:37.948Z,71.70
2022-12-26T13:48:26.228Z,71.70
2022-12-26T13:51:02.130Z,71.90
2022-12-26T13:53:41.160Z,71.80
2022-12-26T13:56:31.893Z,71.90
2022-12-26T13:59:15.999Z,72.10
2022-12-26T14:02:04.438Z,72.00
2022-12-26T14:04:48.792Z,72.00
2022-12-26T14:07:40.160Z,72.10
2022-12-26T14:10:15.642Z,72.20
2022-12-26T14:13:00.645Z,72.30
2022-12-26T14:15:52.617Z,72.50
2022-12-26T14:18:34.870Z,72.70
2022-12-26T14:21:31.097Z,72.90
2022-12-26T14:24:12.499Z,73.00
2022-12-26T14:26:57.845Z,73.00
2022-12-26T14:29:30.564Z,73.20
2022-12-26T14:32:12.522Z,73.20
2022-12-26T14:35:07.768Z,73.40
2022-12-26T14:37:43.408Z,73.60
2022-12-26T14:40:23.063Z,73.50
2022-12-26T14:43:14.267Z,73.50
2022-12-26T14:45:47.923Z,73.60
2022-12-26T14:48:16.324Z,73.50
2022-12-26T14:50:44.130Z,73.50
2022-12-26T14:53:30.365Z,73.60
2022-12-26T14:56:10.244Z,73.80
2022-12-26T14:58:51.944Z,74.10
2022-12-26T15:01:22.581Z,74.20
2022-12-26T15:04:07.378Z,74.30
2022-12-26T15:06:52.705Z,74.50
2022-12-26T15:09:23.174Z,74.60
2022-12-26T15:12:07.472Z,74.70
2022-12-26T15:14:51.911Z,74.90
2022-12-26T15:17:47.174Z,74.90
2022-12-26T15:20:41.310Z,75.00
2022-12-26T15:23:23.743Z,75.10
2022-12-26T15:26:05.256Z,75.20
2022-12-26T15:28:52.941Z,75.30
2022-12-26T15:31:38.565Z,75.40
2022-12-26T15:34:14.859Z,75.40
2022-12-26T15:36:48.650Z,75.50
2022-12-26T15:39:45.501Z,75.70
2022-12-26T15:42:50.574Z,75.80
2022-12-26T15:45:40.119Z,75.90
2022-12-26T15:48:25.316Z,76.10
2022-12-26T15:50:55.417Z,76.30
2022-12-26T15:53:37.034Z,76.30
2022-12-26T15:56:13.169Z,76.50
2022-12-26T15:58:54.652Z,76.60
2022-12-26T16:01:43.379Z,76.70
2022-12-26T16:04:17.951Z,76.70
2022-12-26T16:07:03.378Z,76.90
2022-12-26T16:09:43.847Z,76.90
2022-12-26T16:12:37.388Z,77.10
2022-12-26T16:15:11.881Z,77.50
2022-12-26T16:17:40.528Z,77.50
2022-12-26T16:20:39.918Z,77.50
2022-12-26T16:23:13.919Z,77.70
2022-12-26T16:25:53.629Z,77.60
2022-12-26T16:28:39.800Z,77.60
2022-12-26T16:31:09.219Z,77.60
2022-12-26T16:33:44.689Z,77.60
2022-12-26T16:36:23.053Z,77.60
2022-12-26T16:38:52.011Z,77.70
2022-12-26T16:41:26.316Z,77.70
2022-12-26T16:43:55.442Z,77.70
2022-12-26T16:46:31.535Z,77.90
2022-12-26T16:49:02.391Z,77.80
2022-12-26T16:51:47.902Z,77.80
2022-12-26T16:54:16.827Z,77.80
2022-12-26T16:56:54.679Z,77.80
2022-12-26T16:59:25.217Z,77.90
2022-12-26T17:01:57.505Z,77.90
2022-12-26T17:04:30.283Z,77.80
2022-12-26T17:07:07.453Z,77.90
2022-12-26T17:09:57.074Z,78.00
2022-12-26T17:12:30.007Z,78.10
2022-12-26T17:15:02.377Z,78.10
2022-12-26T17:17:40.638Z,78.10
2022-12-26T17:20:22.506Z,78.20
2022-12-26T17:22:54.827Z,78.40
2022-12-26T17:25:29.868Z,78.30
2022-12-26T17:28:08.722Z,78.30
2022-12-26T17:30:38.744Z,78.40
2022-12-26T17:33:22.321Z,78.40
2022-12-26T17:36:52.454Z,78.50
2022-12-26T17:38:51.177Z,78.50
2022-12-26T17:41:19.358Z,78.30
2022-12-26T17:43:47.509Z,78.40
2022-12-26T17:46:17.572Z,78.50
2022-12-26T17:48:45.518Z,78.50
2022-12-26T17:51:17.786Z,78.50
2022-12-26T17:53:54.691Z,78.60
2022-12-26T17:56:27.318Z,78.50
2022-12-26T17:58:55.665Z,78.40
2022-12-26T18:01:24.353Z,78.40
2022-12-26T18:03:54.380Z,78.40
2022-12-26T18:06:28.392Z,78.50
2022-12-26T18:08:59.686Z,78.50
2022-12-26T18:11:28.318Z,78.40
2022-12-26T18:13:56.003Z,78.50
2022-12-26T18:16:28.210Z,78.50
2022-12-26T18:18:57.312Z,78.40
2022-12-26T18:21:24.625Z,78.40
2022-12-26T18:23:55.774Z,78.50
2022-12-26T18:26:27.396Z,78.50
2022-12-26T18:28:55.618Z,78.50
2022-12-26T18:31:24.006Z,78.50
2022-12-26T18:33:52.265Z,78.50
2022-12-26T18:36:22.532Z,78.50
2022-12-26T18:38:50.250Z,78.60
2022-12-26T18:41:19.435Z,78.60
2022-12-26T18:43:47.711Z,78.60
2022-12-26T18:46:17.821Z,78.60
2022-12-26T18:48:46.383Z,78.50
2022-12-26T18:51:14.099Z,78.50
2022-12-26T18:53:41.736Z,78.50
2022-12-26T18:56:15.203Z,78.60
2022-12-26T18:58:42.995Z,78.60
2022-12-26T19:01:17.988Z,78.50
2022-12-26T19:03:45.841Z,78.50
2022-12-26T19:06:25.733Z,78.40
2022-12-26T19:08:53.759Z,78.50
2022-12-26T19:11:21.667Z,78.40
2022-12-26T19:13:50.214Z,78.40
2022-12-26T19:16:17.565Z,78.40
2022-12-26T19:18:46.319Z,78.30
2022-12-26T19:21:21.171Z,78.40
2022-12-26T19:23:51.724Z,78.40
2022-12-26T19:26:28.180Z,78.30
2022-12-26T19:29:06.799Z,78.30
2022-12-26T19:31:43.947Z,78.30
2022-12-26T19:34:26.299Z,78.30
2022-12-26T19:36:58.015Z,78.40
2022-12-26T19:39:30.356Z,78.30
2022-12-26T19:41:59.367Z,78.40
2022-12-26T19:44:29.482Z,78.40
2022-12-26T19:47:11.096Z,78.40
2022-12-26T19:49:41.812Z,78.50
2022-12-26T19:52:15.536Z,78.40
2022-12-26T19:54:43.889Z,78.40
2022-12-26T19:57:11.220Z,78.50
2022-12-26T19:59:39.538Z,78.40
2022-12-26T20:02:12.985Z,78.40
2022-12-26T20:04:43.616Z,78.40
2022-12-26T20:07:14.705Z,78.40
2022-12-26T20:09:47.271Z,78.40
2022-12-26T20:12:17.158Z,78.40
2022-12-26T20:18:16.353Z,78.50
2022-12-26T20:20:53.215Z,78.50
2022-12-26T20:23:21.950Z,78.60
2022-12-26T20:25:49.728Z,78.50
2022-12-26T20:28:18.259Z,78.50
2022-12-26T20:30:56.412Z,78.50
2022-12-26T20:33:23.853Z,78.50
2022-12-26T20:36:04.475Z,78.40
2022-12-26T20:38:38.215Z,78.50
2022-12-26T20:41:08.437Z,78.40
2022-12-26T20:43:36.749Z,78.50
2022-12-26T20:46:18.831Z,78.70
2022-12-26T20:48:51.454Z,78.70
2022-12-26T20:51:34.633Z,78.80
2022-12-26T20:54:08.870Z,78.80
2022-12-26T20:56:38.390Z,78.70
2022-12-26T20:59:08.948Z,78.70
2022-12-26T21:01:38.388Z,78.70
2022-12-26T21:04:06.389Z,78.70
2022-12-26T21:06:38.189Z,78.70
2022-12-26T21:09:07.756Z,78.70
2022-12-26T21:11:39.258Z,78.60
2022-12-26T21:14:12.110Z,78.60
2022-12-26T21:16:49.142Z,78.70
2022-12-26T21:19:17.401Z,78.60
2022-12-26T21:21:47.833Z,78.50
2022-12-26T21:24:21.063Z,78.50
2022-12-26T21:26:49.568Z,78.50
2022-12-26T21:29:26.821Z,78.40
2022-12-26T21:31:57.114Z,78.40
2022-12-26T21:34:30.080Z,78.20
2022-12-26T21:37:16.561Z,78.10
2022-12-26T21:39:44.675Z,77.80
2022-12-26T21:42:14.857Z,77.80
2022-12-26T21:44:42.319Z,78.00
2022-12-26T21:47:11.053Z,78.40
2022-12-26T21:49:39.844Z,78.70
2022-12-26T21:52:08.307Z,79.00
2022-12-26T21:54:55.210Z,79.20
2022-12-26T21:57:24.221Z,79.30
2022-12-26T21:59:58.589Z,79.40
2022-12-26T22:02:46.160Z,79.60
2022-12-26T22:05:14.248Z,79.60
2022-12-26T22:07:42.677Z,79.60
2022-12-26T22:10:31.650Z,79.60
2022-12-26T22:13:02.567Z,79.70
2022-12-26T22:15:46.897Z,79.70
2022-12-26T22:18:17.670Z,79.70
2022-12-26T22:20:46.362Z,79.70
2022-12-26T22:23:14.845Z,79.70
2022-12-26T22:25:42.243Z,79.70
2022-12-26T22:28:10.781Z,79.70
2022-12-26T22:30:46.980Z,79.70
2022-12-26T22:36:08.279Z,79.60
2022-12-26T22:41:22.764Z,79.70
2022-12-26T22:46:40.129Z,79.70
2022-12-26T22:49:09.718Z,79.70
2022-12-26T22:51:38.565Z,79.80
2022-12-26T22:54:08.458Z,80.00
2022-12-26T22:56:36.108Z,80.00
2022-12-26T22:59:05.523Z,80.00
2022-12-26T23:01:41.138Z,80.10
2022-12-26T23:04:12.607Z,80.10
2022-12-26T23:06:46.622Z,80.10
2022-12-26T23:09:17.311Z,80.20
2022-12-26T23:12:05.452Z,80.20
2022-12-26T23:14:35.377Z,80.20
2022-12-26T23:17:08.003Z,80.30
2022-12-26T23:20:17.487Z,80.40
2022-12-26T23:22:52.344Z,80.50
2022-12-26T23:25:20.116Z,80.40
2022-12-26T23:28:00.428Z,80.50
2022-12-26T23:30:31.276Z,80.50
2022-12-26T23:32:59.533Z,80.50
2022-12-26T23:35:28.242Z,80.60
2022-12-26T23:37:56.055Z,80.70
2022-12-26T23:40:24.308Z,80.80
2022-12-26T23:42:51.668Z,80.80
2022-12-26T23:45:21.760Z,80.90
2022-12-26T23:47:49.201Z,80.90
2022-12-26T23:50:17.647Z,80.90
2022-12-26T23:52:45.115Z,80.90
2022-12-26T23:55:13.237Z,80.90
2022-12-26T23:57:40.823Z,81.00
